sensor_id;sensor_type;location;lat;lon;timestamp;noise_LAeq;noise_LA_min;noise_LA_max;noise_LA01;noise_LA95
74292;Laerm;62687;55.738;37.516;2023-01-30T00:00:06;65.77;55.24;82.72;;
74292;Laerm;62687;55.738;37.516;2023-01-30T00:02:50;65.13;54.74;72.10;;
74292;Laerm;62687;55.738;37.516;2023-01-30T00:05:34;67.04;52.72;84.09;;
74292;Laerm;62687;55.738;37.516;2023-01-30T00:08:18;66.47;57.61;81.22;;
74292;Laerm;62687;55.738;37.516;2023-01-30T00:11:04;64.00;55.29;71.89;;
74292;Laerm;62687;55.738;37.516;2023-01-30T00:13:49;64.83;56.64;76.41;;
74292;Laerm;62687;55.738;37.516;2023-01-30T00:16:33;65.02;56.95;72.71;;
74292;Laerm;62687;55.738;37.516;2023-01-30T00:19:18;65.82;55.71;72.50;;
74292;Laerm;62687;55.738;37.516;2023-01-30T00:22:02;64.60;53.43;73.48;;
74292;Laerm;62687;55.738;37.516;2023-01-30T00:24:46;65.67;56.46;75.46;;
74292;Laerm;62687;55.738;37.516;2023-01-30T00:27:30;66.30;55.46;74.46;;
74292;Laerm;62687;55.738;37.516;2023-01-30T00:30:15;65.17;54.68;73.13;;
74292;Laerm;62687;55.738;37.516;2023-01-30T00:32:59;65.00;53.23;75.29;;
74292;Laerm;62687;55.738;37.516;2023-01-30T00:35:45;64.99;53.00;77.28;;
74292;Laerm;62687;55.738;37.516;2023-01-30T00:38:29;66.10;59.74;72.57;;
74292;Laerm;62687;55.738;37.516;2023-01-30T00:41:14;64.73;54.31;76.07;;
74292;Laerm;62687;55.738;37.516;2023-01-30T00:43:59;63.28;52.95;71.48;;
74292;Laerm;62687;55.738;37.516;2023-01-30T00:47:02;65.71;55.62;73.00;;
74292;Laerm;62687;55.738;37.516;2023-01-30T00:49:50;63.97;54.19;71.58;;
74292;Laerm;62687;55.738;37.516;2023-01-30T00:52:34;63.53;53.50;70.15;;
74292;Laerm;62687;55.738;37.516;2023-01-30T00:55:18;64.61;52.92;73.04;;
74292;Laerm;62687;55.738;37.516;2023-01-30T00:58:02;65.74;52.61;73.88;;
74292;Laerm;62687;55.738;37.516;2023-01-30T01:00:46;65.54;54.84;75.30;;
74292;Laerm;62687;55.738;37.516;2023-01-30T01:03:31;62.29;49.05;70.44;;
74292;Laerm;62687;55.738;37.516;2023-01-30T01:06:15;65.37;57.45;73.00;;
74292;Laerm;62687;55.738;37.516;2023-01-30T01:08:59;67.22;53.62;79.11;;
74292;Laerm;62687;55.738;37.516;2023-01-30T01:11:43;65.41;55.79;79.53;;
74292;Laerm;62687;55.738;37.516;2023-01-30T01:14:27;65.15;51.63;73.05;;
74292;Laerm;62687;55.738;37.516;2023-01-30T01:17:12;65.33;55.60;73.05;;
74292;Laerm;62687;55.738;37.516;2023-01-30T01:19:56;65.30;54.64;73.10;;
74292;Laerm;62687;55.738;37.516;2023-01-30T01:22:40;64.38;51.77;75.77;;
74292;Laerm;62687;55.738;37.516;2023-01-30T01:25:24;66.16;57.81;78.41;;
74292;Laerm;62687;55.738;37.516;2023-01-30T01:28:08;66.06;57.72;70.46;;
74292;Laerm;62687;55.738;37.516;2023-01-30T01:30:52;63.81;53.40;70.62;;
74292;Laerm;62687;55.738;37.516;2023-01-30T01:33:37;65.62;57.54;74.27;;
74292;Laerm;62687;55.738;37.516;2023-01-30T01:36:21;66.30;55.52;74.40;;
74292;Laerm;62687;55.738;37.516;2023-01-30T01:39:05;67.48;52.56;77.19;;
74292;Laerm;62687;55.738;37.516;2023-01-30T01:41:50;66.63;56.52;83.01;;
74292;Laerm;62687;55.738;37.516;2023-01-30T01:50:41;67.84;57.78;76.85;;
74292;Laerm;62687;55.738;37.516;2023-01-30T01:53:33;65.63;56.02;71.44;;
74292;Laerm;62687;55.738;37.516;2023-01-30T01:56:20;66.20;56.78;74.17;;
74292;Laerm;62687;55.738;37.516;2023-01-30T01:59:11;65.99;56.83;75.06;;
74292;Laerm;62687;55.738;37.516;2023-01-30T02:02:00;66.38;57.85;78.09;;
74292;Laerm;62687;55.738;37.516;2023-01-30T02:04:48;65.92;56.55;78.97;;
74292;Laerm;62687;55.738;37.516;2023-01-30T02:08:14;67.23;58.19;75.05;;
74292;Laerm;62687;55.738;37.516;2023-01-30T02:13:50;67.99;56.25;87.83;;
74292;Laerm;62687;55.738;37.516;2023-01-30T02:16:35;66.87;56.52;73.68;;
74292;Laerm;62687;55.738;37.516;2023-01-30T02:29:18;67.60;61.15;74.06;;
74292;Laerm;62687;55.738;37.516;2023-01-30T02:49:22;68.85;61.76;80.74;;
74292;Laerm;62687;55.738;37.516;2023-01-30T02:52:10;69.58;62.01;75.05;;
74292;Laerm;62687;55.738;37.516;2023-01-30T02:54:55;69.11;61.75;77.53;;
74292;Laerm;62687;55.738;37.516;2023-01-30T02:57:39;69.56;61.09;77.13;;
74292;Laerm;62687;55.738;37.516;2023-01-30T03:06:43;69.40;62.37;75.56;;
74292;Laerm;62687;55.738;37.516;2023-01-30T03:09:47;69.80;63.87;74.69;;
74292;Laerm;62687;55.738;37.516;2023-01-30T03:15:34;70.70;65.52;77.39;;
74292;Laerm;62687;55.738;37.516;2023-01-30T03:18:19;70.12;62.90;74.64;;
74292;Laerm;62687;55.738;37.516;2023-01-30T03:21:05;71.34;65.32;76.17;;
74292;Laerm;62687;55.738;37.516;2023-01-30T03:23:49;71.00;64.29;85.63;;
74292;Laerm;62687;55.738;37.516;2023-01-30T03:26:36;70.52;64.35;75.81;;
74292;Laerm;62687;55.738;37.516;2023-01-30T03:31:47;72.28;65.98;77.18;;
74292;Laerm;62687;55.738;37.516;2023-01-30T03:34:31;71.58;67.42;77.84;;
74292;Laerm;62687;55.738;37.516;2023-01-30T03:37:16;71.63;65.77;78.37;;
74292;Laerm;62687;55.738;37.516;2023-01-30T03:40:00;71.39;66.10;75.83;;
74292;Laerm;62687;55.738;37.516;2023-01-30T03:42:45;71.57;66.58;76.10;;
74292;Laerm;62687;55.738;37.516;2023-01-30T03:45:29;71.89;65.65;78.12;;
74292;Laerm;62687;55.738;37.516;2023-01-30T03:48:13;72.30;65.77;77.41;;
74292;Laerm;62687;55.738;37.516;2023-01-30T03:50:57;72.11;66.60;76.60;;
74292;Laerm;62687;55.738;37.516;2023-01-30T03:53:41;72.00;66.74;76.13;;
74292;Laerm;62687;55.738;37.516;2023-01-30T03:56:24;71.91;66.61;76.87;;
74292;Laerm;62687;55.738;37.516;2023-01-30T03:59:09;72.29;66.54;79.27;;
74292;Laerm;62687;55.738;37.516;2023-01-30T04:01:53;72.40;67.62;78.73;;
74292;Laerm;62687;55.738;37.516;2023-01-30T04:04:37;73.03;67.97;78.44;;
74292;Laerm;62687;55.738;37.516;2023-01-30T04:07:21;72.27;68.06;79.60;;
74292;Laerm;62687;55.738;37.516;2023-01-30T04:10:07;72.79;67.14;87.21;;
74292;Laerm;62687;55.738;37.516;2023-01-30T04:12:51;72.77;67.71;77.08;;
74292;Laerm;62687;55.738;37.516;2023-01-30T04:15:35;72.63;67.19;78.78;;
74292;Laerm;62687;55.738;37.516;2023-01-30T04:18:19;72.76;67.01;82.01;;
74292;Laerm;62687;55.738;37.516;2023-01-30T04:21:03;73.02;68.00;77.37;;
74292;Laerm;62687;55.738;37.516;2023-01-30T04:23:48;73.28;69.12;77.75;;
74292;Laerm;62687;55.738;37.516;2023-01-30T04:26:32;73.18;67.83;77.20;;
74292;Laerm;62687;55.738;37.516;2023-01-30T04:29:16;72.90;67.66;79.82;;
74292;Laerm;62687;55.738;37.516;2023-01-30T04:32:00;73.07;68.38;77.58;;
74292;Laerm;62687;55.738;37.516;2023-01-30T04:34:44;74.59;68.11;97.14;;
74292;Laerm;62687;55.738;37.516;2023-01-30T04:37:28;73.37;68.84;89.32;;
74292;Laerm;62687;55.738;37.516;2023-01-30T04:40:12;73.00;68.08;79.94;;
74292;Laerm;62687;55.738;37.516;2023-01-30T04:42:56;73.40;69.44;76.82;;
74292;Laerm;62687;55.738;37.516;2023-01-30T04:45:47;73.57;68.52;89.82;;
74292;Laerm;62687;55.738;37.516;2023-01-30T04:48:32;73.21;69.27;78.58;;
74292;Laerm;62687;55.738;37.516;2023-01-30T04:51:16;73.26;69.46;84.21;;
74292;Laerm;62687;55.738;37.516;2023-01-30T04:54:00;72.99;68.77;78.82;;
74292;Laerm;62687;55.738;37.516;2023-01-30T04:56:44;72.72;68.06;76.91;;
74292;Laerm;62687;55.738;37.516;2023-01-30T04:59:28;73.16;68.22;84.40;;
74292;Laerm;62687;55.738;37.516;2023-01-30T05:02:12;72.62;68.16;80.84;;
74292;Laerm;62687;55.738;37.516;2023-01-30T05:04:55;73.24;68.23;94.03;;
74292;Laerm;62687;55.738;37.516;2023-01-30T05:07:39;72.10;67.65;80.09;;
74292;Laerm;62687;55.738;37.516;2023-01-30T05:10:23;72.59;67.41;76.92;;
74292;Laerm;62687;55.738;37.516;2023-01-30T05:13:07;72.50;68.44;83.14;;
74292;Laerm;62687;55.738;37.516;2023-01-30T05:15:51;72.47;67.60;83.48;;
74292;Laerm;62687;55.738;37.516;2023-01-30T05:18:35;72.92;68.67;77.02;;
74292;Laerm;62687;55.738;37.516;2023-01-30T05:21:25;72.71;67.50;80.43;;
74292;Laerm;62687;55.738;37.516;2023-01-30T05:24:11;72.36;68.56;82.30;;
74292;Laerm;62687;55.738;37.516;2023-01-30T05:26:55;73.13;68.54;88.42;;
74292;Laerm;62687;55.738;37.516;2023-01-30T05:29:39;73.21;69.30;78.71;;
74292;Laerm;62687;55.738;37.516;2023-01-30T05:32:23;72.76;68.81;78.56;;
74292;Laerm;62687;55.738;37.516;2023-01-30T05:35:10;72.72;69.43;77.37;;
74292;Laerm;62687;55.738;37.516;2023-01-30T05:37:54;72.85;68.38;82.99;;
74292;Laerm;62687;55.738;37.516;2023-01-30T05:40:38;72.68;67.91;81.12;;
74292;Laerm;62687;55.738;37.516;2023-01-30T05:43:21;73.03;67.89;83.87;;
74292;Laerm;62687;55.738;37.516;2023-01-30T05:46:06;72.43;68.52;77.09;;
74292;Laerm;62687;55.738;37.516;2023-01-30T05:48:50;73.04;68.80;83.49;;
74292;Laerm;62687;55.738;37.516;2023-01-30T05:51:34;72.82;68.44;81.13;;
74292;Laerm;62687;55.738;37.516;2023-01-30T05:54:18;72.54;67.23;77.54;;
74292;Laerm;62687;55.738;37.516;2023-01-30T05:57:02;72.62;68.20;77.33;;
74292;Laerm;62687;55.738;37.516;2023-01-30T05:59:46;75.12;68.01;88.43;;
74292;Laerm;62687;55.738;37.516;2023-01-30T06:02:30;72.39;67.20;79.57;;
74292;Laerm;62687;55.738;37.516;2023-01-30T06:05:15;72.65;68.48;83.46;;
74292;Laerm;62687;55.738;37.516;2023-01-30T06:07:59;72.56;68.43;80.41;;
74292;Laerm;62687;55.738;37.516;2023-01-30T06:10:43;72.61;69.02;78.34;;
74292;Laerm;62687;55.738;37.516;2023-01-30T06:13:27;73.30;68.86;85.22;;
74292;Laerm;62687;55.738;37.516;2023-01-30T06:16:13;72.93;66.99;80.78;;
74292;Laerm;62687;55.738;37.516;2023-01-30T06:18:58;73.00;68.74;78.93;;
74292;Laerm;62687;55.738;37.516;2023-01-30T06:21:42;72.30;67.91;76.87;;
74292;Laerm;62687;55.738;37.516;2023-01-30T06:24:26;73.01;68.81;81.87;;
74292;Laerm;62687;55.738;37.516;2023-01-30T06:27:10;72.40;68.58;79.98;;
74292;Laerm;62687;55.738;37.516;2023-01-30T06:29:54;72.56;68.81;77.79;;
74292;Laerm;62687;55.738;37.516;2023-01-30T06:32:38;72.24;68.50;79.39;;
74292;Laerm;62687;55.738;37.516;2023-01-30T06:35:22;72.32;66.72;86.83;;
74292;Laerm;62687;55.738;37.516;2023-01-30T06:38:07;72.78;68.88;80.96;;
74292;Laerm;62687;55.738;37.516;2023-01-30T06:40:54;72.97;68.69;76.71;;
74292;Laerm;62687;55.738;37.516;2023-01-30T06:43:40;72.27;68.30;78.84;;
74292;Laerm;62687;55.738;37.516;2023-01-30T06:46:26;72.96;68.07;84.77;;
74292;Laerm;62687;55.738;37.516;2023-01-30T06:49:10;72.32;68.42;77.10;;
74292;Laerm;62687;55.738;37.516;2023-01-30T06:51:54;74.16;67.65;91.91;;
74292;Laerm;62687;55.738;37.516;2023-01-30T06:54:38;75.28;67.21;94.56;;
74292;Laerm;62687;55.738;37.516;2023-01-30T06:57:22;73.05;67.59;88.65;;
74292;Laerm;62687;55.738;37.516;2023-01-30T07:00:10;71.79;67.15;82.96;;
74292;Laerm;62687;55.738;37.516;2023-01-30T07:02:54;73.23;68.74;76.95;;
74292;Laerm;62687;55.738;37.516;2023-01-30T07:05:39;73.10;68.01;82.13;;
74292;Laerm;62687;55.738;37.516;2023-01-30T07:08:23;73.44;69.50;83.99;;
74292;Laerm;62687;55.738;37.516;2023-01-30T07:11:07;73.28;68.20;76.41;;
74292;Laerm;62687;55.738;37.516;2023-01-30T07:13:51;72.90;68.19;77.73;;
74292;Laerm;62687;55.738;37.516;2023-01-30T07:16:35;73.09;67.57;82.67;;
74292;Laerm;62687;55.738;37.516;2023-01-30T07:19:19;72.56;67.84;75.91;;
74292;Laerm;62687;55.738;37.516;2023-01-30T07:22:03;72.07;67.87;77.89;;
74292;Laerm;62687;55.738;37.516;2023-01-30T07:24:47;73.10;67.36;90.87;;
74292;Laerm;62687;55.738;37.516;2023-01-30T07:27:32;72.81;67.95;79.46;;
74292;Laerm;62687;55.738;37.516;2023-01-30T07:30:16;72.72;69.02;78.25;;
74292;Laerm;62687;55.738;37.516;2023-01-30T07:33:03;72.79;69.24;82.19;;
74292;Laerm;62687;55.738;37.516;2023-01-30T07:35:47;72.96;68.21;82.88;;
74292;Laerm;62687;55.738;37.516;2023-01-30T07:38:31;73.28;69.40;80.61;;
74292;Laerm;62687;55.738;37.516;2023-01-30T07:41:15;73.17;68.77;76.65;;
74292;Laerm;62687;55.738;37.516;2023-01-30T07:43:59;73.58;69.51;86.80;;
74292;Laerm;62687;55.738;37.516;2023-01-30T07:46:44;73.51;69.58;79.63;;
74292;Laerm;62687;55.738;37.516;2023-01-30T07:49:28;73.56;70.23;77.95;;
74292;Laerm;62687;55.738;37.516;2023-01-30T07:52:12;73.54;70.06;83.86;;
74292;Laerm;62687;55.738;37.516;2023-01-30T07:54:56;73.59;70.11;79.03;;
74292;Laerm;62687;55.738;37.516;2023-01-30T07:57:40;73.29;68.64;80.53;;
74292;Laerm;62687;55.738;37.516;2023-01-30T08:00:25;72.92;68.46;76.88;;
74292;Laerm;62687;55.738;37.516;2023-01-30T08:03:13;73.16;69.26;78.44;;
74292;Laerm;62687;55.738;37.516;2023-01-30T08:05:58;73.61;69.57;82.18;;
74292;Laerm;62687;55.738;37.516;2023-01-30T08:08:42;73.13;68.83;82.01;;
74292;Laerm;62687;55.738;37.516;2023-01-30T08:11:26;73.05;69.10;83.92;;
74292;Laerm;62687;55.738;37.516;2023-01-30T08:14:10;73.35;69.04;78.08;;
74292;Laerm;62687;55.738;37.516;2023-01-30T08:16:57;73.12;68.69;77.32;;
74292;Laerm;62687;55.738;37.516;2023-01-30T08:19:41;72.62;67.91;77.04;;
74292;Laerm;62687;55.738;37.516;2023-01-30T08:22:27;73.30;69.25;83.79;;
74292;Laerm;62687;55.738;37.516;2023-01-30T08:25:11;73.24;69.08;78.46;;
74292;Laerm;62687;55.738;37.516;2023-01-30T08:27:55;73.46;68.86;79.36;;
74292;Laerm;62687;55.738;37.516;2023-01-30T08:30:41;73.20;70.01;77.65;;
74292;Laerm;62687;55.738;37.516;2023-01-30T08:33:25;73.45;69.28;81.11;;
74292;Laerm;62687;55.738;37.516;2023-01-30T08:36:10;73.32;69.34;80.07;;
74292;Laerm;62687;55.738;37.516;2023-01-30T08:38:53;73.36;68.92;77.66;;
74292;Laerm;62687;55.738;37.516;2023-01-30T08:41:38;73.54;69.77;77.40;;
74292;Laerm;62687;55.738;37.516;2023-01-30T08:44:25;73.53;69.64;81.11;;
74292;Laerm;62687;55.738;37.516;2023-01-30T08:47:09;73.54;69.87;84.49;;
74292;Laerm;62687;55.738;37.516;2023-01-30T08:49:53;73.41;69.37;78.14;;
74292;Laerm;62687;55.738;37.516;2023-01-30T08:52:38;73.78;69.86;85.63;;
74292;Laerm;62687;55.738;37.516;2023-01-30T08:55:22;73.47;69.33;85.69;;
74292;Laerm;62687;55.738;37.516;2023-01-30T08:58:06;73.33;69.01;80.33;;
74292;Laerm;62687;55.738;37.516;2023-01-30T09:00:50;73.48;69.28;77.66;;
74292;Laerm;62687;55.738;37.516;2023-01-30T09:03:34;73.24;69.33;80.22;;
74292;Laerm;62687;55.738;37.516;2023-01-30T09:06:18;73.49;69.49;77.45;;
74292;Laerm;62687;55.738;37.516;2023-01-30T09:09:02;73.20;68.86;78.23;;
74292;Laerm;62687;55.738;37.516;2023-01-30T09:11:46;73.57;69.42;82.10;;
74292;Laerm;62687;55.738;37.516;2023-01-30T09:14:31;73.19;69.03;80.04;;
74292;Laerm;62687;55.738;37.516;2023-01-30T09:17:15;73.34;69.86;87.20;;
74292;Laerm;62687;55.738;37.516;2023-01-30T09:19:59;73.07;69.31;77.85;;
74292;Laerm;62687;55.738;37.516;2023-01-30T09:22:43;73.31;69.26;83.06;;
74292;Laerm;62687;55.738;37.516;2023-01-30T09:25:27;73.12;69.14;77.18;;
74292;Laerm;62687;55.738;37.516;2023-01-30T09:28:11;73.24;69.37;78.94;;
74292;Laerm;62687;55.738;37.516;2023-01-30T09:31:02;73.54;69.06;79.47;;
74292;Laerm;62687;55.738;37.516;2023-01-30T09:33:46;73.64;69.62;89.26;;
74292;Laerm;62687;55.738;37.516;2023-01-30T09:36:30;73.82;70.21;82.73;;
74292;Laerm;62687;55.738;37.516;2023-01-30T09:39:15;73.41;69.25;79.56;;
74292;Laerm;62687;55.738;37.516;2023-01-30T09:48:50;73.88;68.74;86.50;;
74292;Laerm;62687;55.738;37.516;2023-01-30T09:54:20;73.52;69.63;78.36;;
74292;Laerm;62687;55.738;37.516;2023-01-30T10:00:04;73.65;69.37;79.53;;
74292;Laerm;62687;55.738;37.516;2023-01-30T10:03:10;73.24;69.36;77.76;;
74292;Laerm;62687;55.738;37.516;2023-01-30T10:06:00;73.62;69.95;78.17;;
74292;Laerm;62687;55.738;37.516;2023-01-30T10:09:15;73.52;69.73;81.05;;
74292;Laerm;62687;55.738;37.516;2023-01-30T10:12:14;73.03;69.44;80.93;;
74292;Laerm;62687;55.738;37.516;2023-01-30T10:27:16;73.24;69.44;80.04;;
74292;Laerm;62687;55.738;37.516;2023-01-30T10:30:03;73.11;69.57;77.32;;
74292;Laerm;62687;55.738;37.516;2023-01-30T10:32:56;73.32;68.80;81.89;;
74292;Laerm;62687;55.738;37.516;2023-01-30T10:35:43;73.15;69.22;79.34;;
74292;Laerm;62687;55.738;37.516;2023-01-30T10:38:34;73.58;69.85;81.74;;
74292;Laerm;62687;55.738;37.516;2023-01-30T10:41:28;73.42;69.72;78.80;;
74292;Laerm;62687;55.738;37.516;2023-01-30T10:44:14;73.33;69.70;77.49;;
74292;Laerm;62687;55.738;37.516;2023-01-30T10:47:27;73.45;69.14;82.66;;
74292;Laerm;62687;55.738;37.516;2023-01-30T10:50:20;73.65;67.62;78.80;;
74292;Laerm;62687;55.738;37.516;2023-01-30T10:53:16;73.19;69.19;77.02;;
74292;Laerm;62687;55.738;37.516;2023-01-30T10:56:28;73.31;68.48;77.47;;
74292;Laerm;62687;55.738;37.516;2023-01-30T10:59:44;74.16;68.35;86.89;;
74292;Laerm;62687;55.738;37.516;2023-01-30T11:02:52;73.55;69.40;78.41;;
74292;Laerm;62687;55.738;37.516;2023-01-30T11:06:15;73.13;69.04;78.19;;
74292;Laerm;62687;55.738;37.516;2023-01-30T11:09:01;73.77;68.90;79.62;;
74292;Laerm;62687;55.738;37.516;2023-01-30T11:11:51;73.54;69.60;83.55;;
74292;Laerm;62687;55.738;37.516;2023-01-30T11:15:00;73.30;69.36;81.62;;
74292;Laerm;62687;55.738;37.516;2023-01-30T11:17:46;73.43;68.77;79.20;;
74292;Laerm;62687;55.738;37.516;2023-01-30T11:20:41;73.31;68.99;77.00;;
74292;Laerm;62687;55.738;37.516;2023-01-30T11:23:32;73.68;68.88;78.96;;
74292;Laerm;62687;55.738;37.516;2023-01-30T11:26:37;73.41;69.12;79.30;;
74292;Laerm;62687;55.738;37.516;2023-01-30T11:29:30;73.46;69.41;77.55;;
74292;Laerm;62687;55.738;37.516;2023-01-30T11:32:24;72.97;68.62;77.20;;
74292;Laerm;62687;55.738;37.516;2023-01-30T11:37:53;73.35;69.57;77.19;;
74292;Laerm;62687;55.738;37.516;2023-01-30T11:40:39;73.16;69.10;76.80;;
74292;Laerm;62687;55.738;37.516;2023-01-30T11:43:24;73.41;70.14;81.83;;
74292;Laerm;62687;55.738;37.516;2023-01-30T11:46:13;73.40;69.86;84.95;;
74292;Laerm;62687;55.738;37.516;2023-01-30T11:49:10;73.50;69.69;78.13;;
74292;Laerm;62687;55.738;37.516;2023-01-30T11:51:55;73.26;69.46;77.28;;
74292;Laerm;62687;55.738;37.516;2023-01-30T11:54:42;73.90;69.48;83.66;;
74292;Laerm;62687;55.738;37.516;2023-01-30T11:57:28;73.26;68.34;76.78;;
74292;Laerm;62687;55.738;37.516;2023-01-30T12:00:22;73.18;69.59;78.67;;
74292;Laerm;62687;55.738;37.516;2023-01-30T12:03:12;73.26;67.66;78.51;;
74292;Laerm;62687;55.738;37.516;2023-01-30T12:05:57;72.24;68.55;79.02;;
74292;Laerm;62687;55.738;37.516;2023-01-30T12:08:42;73.11;67.76;79.71;;
74292;Laerm;62687;55.738;37.516;2023-01-30T12:14:36;74.19;69.89;87.18;;
74292;Laerm;62687;55.738;37.516;2023-01-30T12:17:27;73.61;69.69;77.04;;
74292;Laerm;62687;55.738;37.516;2023-01-30T12:23:55;73.21;69.54;78.61;;
74292;Laerm;62687;55.738;37.516;2023-01-30T12:26:48;73.32;69.36;79.94;;
74292;Laerm;62687;55.738;37.516;2023-01-30T12:29:37;73.38;69.61;83.84;;
74292;Laerm;62687;55.738;37.516;2023-01-30T12:32:27;72.82;68.81;76.16;;
74292;Laerm;62687;55.738;37.516;2023-01-30T12:35:15;73.19;69.70;78.15;;
74292;Laerm;62687;55.738;37.516;2023-01-30T12:47:47;72.29;68.77;84.30;;
74292;Laerm;62687;55.738;37.516;2023-01-30T13:07:02;72.43;69.15;80.07;;
74292;Laerm;62687;55.738;37.516;2023-01-30T13:10:05;73.08;68.90;85.53;;
74292;Laerm;62687;55.738;37.516;2023-01-30T13:18:48;71.95;67.78;80.56;;
74292;Laerm;62687;55.738;37.516;2023-01-30T13:27:37;71.74;68.28;76.02;;
74292;Laerm;62687;55.738;37.516;2023-01-30T13:30:24;72.54;68.03;81.23;;
74292;Laerm;62687;55.738;37.516;2023-01-30T13:33:31;71.80;68.36;80.82;;
74292;Laerm;62687;55.738;37.516;2023-01-30T13:36:20;71.83;68.12;76.00;;
74292;Laerm;62687;55.738;37.516;2023-01-30T13:42:27;71.85;68.02;82.80;;
74292;Laerm;62687;55.738;37.516;2023-01-30T13:45:26;72.25;68.34;76.89;;
74292;Laerm;62687;55.738;37.516;2023-01-30T13:48:33;72.09;68.47;85.98;;
74292;Laerm;62687;55.738;37.516;2023-01-30T13:54:32;72.08;67.65;84.51;;
74292;Laerm;62687;55.738;37.516;2023-01-30T13:57:29;71.74;68.25;83.31;;
74292;Laerm;62687;55.738;37.516;2023-01-30T14:11:33;71.88;66.34;90.25;;
74292;Laerm;62687;55.738;37.516;2023-01-30T14:20:15;71.98;68.27;77.23;;
74292;Laerm;62687;55.738;37.516;2023-01-30T14:23:26;70.71;66.75;75.13;;
74292;Laerm;62687;55.738;37.516;2023-01-30T14:26:12;70.84;67.38;79.66;;
74292;Laerm;62687;55.738;37.516;2023-01-30T14:28:56;71.45;67.90;76.60;;
74292;Laerm;62687;55.738;37.516;2023-01-30T14:31:48;71.67;67.91;78.19;;
74292;Laerm;62687;55.738;37.516;2023-01-30T14:37:47;71.45;67.79;77.19;;
74292;Laerm;62687;55.738;37.516;2023-01-30T14:40:34;71.17;68.12;74.38;;
74292;Laerm;62687;55.738;37.516;2023-01-30T14:49:32;71.35;67.66;75.99;;
74292;Laerm;62687;55.738;37.516;2023-01-30T14:55:23;71.32;67.47;77.13;;
74292;Laerm;62687;55.738;37.516;2023-01-30T14:58:16;70.72;65.96;81.26;;
74292;Laerm;62687;55.738;37.516;2023-01-30T15:01:01;71.31;67.58;83.26;;
74292;Laerm;62687;55.738;37.516;2023-01-30T15:03:47;71.57;68.22;84.24;;
74292;Laerm;62687;55.738;37.516;2023-01-30T15:06:34;71.09;67.65;76.13;;
74292;Laerm;62687;55.738;37.516;2023-01-30T15:09:23;70.92;66.80;80.50;;
74292;Laerm;62687;55.738;37.516;2023-01-30T15:19:24;71.95;67.66;85.08;;
74292;Laerm;62687;55.738;37.516;2023-01-30T15:22:26;71.95;68.41;77.10;;
74292;Laerm;62687;55.738;37.516;2023-01-30T15:31:55;71.24;67.15;85.44;;
74292;Laerm;62687;55.738;37.516;2023-01-30T15:34:48;71.36;67.59;78.93;;
74292;Laerm;62687;55.738;37.516;2023-01-30T15:37:37;71.36;67.86;75.55;;
74292;Laerm;62687;55.738;37.516;2023-01-30T15:40:27;71.57;67.16;79.53;;
74292;Laerm;62687;55.738;37.516;2023-01-30T15:52:46;70.29;65.44;82.53;;
74292;Laerm;62687;55.738;37.516;2023-01-30T15:55:35;70.24;66.40;78.24;;
74292;Laerm;62687;55.738;37.516;2023-01-30T15:58:20;71.77;67.18;80.32;;
74292;Laerm;62687;55.738;37.516;2023-01-30T16:01:06;72.23;68.12;82.16;;
74292;Laerm;62687;55.738;37.516;2023-01-30T16:03:50;72.20;68.34;80.56;;
74292;Laerm;62687;55.738;37.516;2023-01-30T16:06:36;71.56;68.08;76.35;;
74292;Laerm;62687;55.738;37.516;2023-01-30T16:09:22;71.90;68.13;81.31;;
74292;Laerm;62687;55.738;37.516;2023-01-30T16:15:22;72.13;67.37;81.89;;
74292;Laerm;62687;55.738;37.516;2023-01-30T16:21:07;70.47;65.29;74.65;;
74292;Laerm;62687;55.738;37.516;2023-01-30T16:26:48;70.52;66.27;76.91;;
74292;Laerm;62687;55.738;37.516;2023-01-30T16:29:45;70.73;66.73;75.40;;
74292;Laerm;62687;55.738;37.516;2023-01-30T16:32:33;71.09;66.23;78.76;;
74292;Laerm;62687;55.738;37.516;2023-01-30T16:41:30;72.29;68.24;83.95;;
74292;Laerm;62687;55.738;37.516;2023-01-30T16:44:28;71.43;67.43;75.29;;
74292;Laerm;62687;55.738;37.516;2023-01-30T16:47:22;71.67;67.45;79.67;;
74292;Laerm;62687;55.738;37.516;2023-01-30T16:50:19;70.86;66.18;76.06;;
74292;Laerm;62687;55.738;37.516;2023-01-30T16:53:12;71.15;65.50;86.18;;
74292;Laerm;62687;55.738;37.516;2023-01-30T16:56:02;70.73;66.08;78.88;;
74292;Laerm;62687;55.738;37.516;2023-01-30T16:58:58;70.53;65.84;81.00;;
74292;Laerm;62687;55.738;37.516;2023-01-30T17:01:43;70.20;65.43;85.61;;
74292;Laerm;62687;55.738;37.516;2023-01-30T17:04:30;72.45;66.77;89.20;;
74292;Laerm;62687;55.738;37.516;2023-01-30T17:07:32;70.29;65.80;74.88;;
74292;Laerm;62687;55.738;37.516;2023-01-30T17:13:37;70.72;65.25;77.07;;
74292;Laerm;62687;55.738;37.516;2023-01-30T17:16:33;71.75;66.45;79.35;;
74292;Laerm;62687;55.738;37.516;2023-01-30T17:19:17;71.79;66.67;82.74;;
74292;Laerm;62687;55.738;37.516;2023-01-30T17:22:04;72.38;68.18;85.67;;
74292;Laerm;62687;55.738;37.516;2023-01-30T17:24:49;71.76;68.30;82.62;;
74292;Laerm;62687;55.738;37.516;2023-01-30T17:27:33;71.36;67.64;75.20;;
74292;Laerm;62687;55.738;37.516;2023-01-30T17:30:18;71.13;66.95;80.20;;
74292;Laerm;62687;55.738;37.516;2023-01-30T17:33:02;71.32;67.13;75.70;;
74292;Laerm;62687;55.738;37.516;2023-01-30T17:35:46;71.33;67.55;78.05;;
74292;Laerm;62687;55.738;37.516;2023-01-30T17:38:31;71.83;67.11;80.90;;
74292;Laerm;62687;55.738;37.516;2023-01-30T17:41:19;72.76;67.91;78.67;;
74292;Laerm;62687;55.738;37.516;2023-01-30T17:44:04;72.30;67.82;80.84;;
74292;Laerm;62687;55.738;37.516;2023-01-30T17:46:50;72.62;68.52;78.92;;
74292;Laerm;62687;55.738;37.516;2023-01-30T17:49:34;73.19;68.54;88.76;;
74292;Laerm;62687;55.738;37.516;2023-01-30T17:52:18;73.19;67.91;81.74;;
74292;Laerm;62687;55.738;37.516;2023-01-30T17:55:03;72.55;68.16;78.73;;
74292;Laerm;62687;55.738;37.516;2023-01-30T17:57:47;72.91;68.62;76.61;;
74292;Laerm;62687;55.738;37.516;2023-01-30T18:00:32;72.77;68.54;78.77;;
74292;Laerm;62687;55.738;37.516;2023-01-30T18:03:16;72.50;68.40;84.55;;
74292;Laerm;62687;55.738;37.516;2023-01-30T18:05:59;73.04;67.49;80.11;;
74292;Laerm;62687;55.738;37.516;2023-01-30T18:08:43;72.24;68.68;76.23;;
74292;Laerm;62687;55.738;37.516;2023-01-30T18:11:28;72.77;68.30;76.89;;
74292;Laerm;62687;55.738;37.516;2023-01-30T18:14:12;71.46;66.74;81.25;;
74292;Laerm;62687;55.738;37.516;2023-01-30T18:16:56;72.19;67.71;76.35;;
74292;Laerm;62687;55.738;37.516;2023-01-30T18:19:42;72.35;67.50;77.94;;
74292;Laerm;62687;55.738;37.516;2023-01-30T18:22:26;72.74;68.54;80.90;;
74292;Laerm;62687;55.738;37.516;2023-01-30T18:25:11;72.96;68.55;79.19;;
74292;Laerm;62687;55.738;37.516;2023-01-30T18:27:58;72.80;67.81;80.05;;
74292;Laerm;62687;55.738;37.516;2023-01-30T18:30:42;72.61;67.75;80.91;;
74292;Laerm;62687;55.738;37.516;2023-01-30T18:33:26;72.60;68.64;79.55;;
74292;Laerm;62687;55.738;37.516;2023-01-30T18:36:14;72.99;68.65;79.95;;
74292;Laerm;62687;55.738;37.516;2023-01-30T18:38:59;73.19;69.27;78.58;;